Terminal Aerodrome Forecast
Issued by NWS Rapid City, SD

Home | Current Version | Previous Version | Text Only | Print | Product List | Glossary Off
Versions: 1 2 3 4 5 6 7 8 9 10 11 12 13 14 15 16 17 18 19 20 21

376
FTUS43 KUNR 102320
TAFRAP
TAF
KRAP 102320Z 1100/1124 32014KT P6SM SCT200
     FM110600 VRB04KT 4SM BR OVC006
     FM111500 35008KT P6SM BKN150=

USA.gov is the U.S. government's official web portal to all federal, state and local government web resources and services.